ナンディ の空港の天気 - METARとTAF

ナンディ国際空港 ( NFFN / NAN ) - フィジー ナンディ (ビティレブ島)
飛行場実況気象(Metar)
観測時間11/13 21:00 FJST (11/13 08:00 UTC)
風向・風速東南東 3m/s
視程10km以上
天気現象
全天の4割程度の雲 雲底高度 850m
全天の4割程度の雲 雲底高度 1460m
気温27℃
湿度66%
気圧1012hPa
METARNFFN 130800Z 11006KT 9999 SCT028TCU SCT048 27/20 Q1012 NOSIG
過去の天気等 Google飛行場航空写真 Wunderground天気予報

過去48時間のMETAR

飛行場予報(TAF)
発表時間: 11/13 18:06 FJST (11/13 05:06 UTC)
予報対象時間: 13日19時 FJST ~ 14日19時 FJST
風向・風速東南東 3m/s
視程10km以上
全天の4割程度の雲 雲底高度 850m
全天の4割程度の雲 雲底高度 1460m
14日11時 FJST ~ 14日13時 FJST に徐々に
風向・風速西北西 6m/s
TAF NFFN 130506Z 1306/1406 12005KT 9999 SCT028 SCT048
BECMG 1322/1400 30012KT